N600FA LLHZ-LLHZ
Flight info
| Callsign | N600FA |
|---|---|
| Flight time | 0h 31m |
| Altitude | 6000 |
| Route | LLHZ/ BENQO1 NAT IFR/VFR SHARO DEROR BAZRA/ LLHZ |
| Aircraft | AEST/L-SC/5275 |
Departure
| Time | 2026-05-04 18:12 |
|---|---|
| Airport | Herzliya Airport (LLHZ) |
Arrival
| Time | 2026-05-04 18:43 |
|---|---|
| Airport | Herzliya Airport (LLHZ) |
| Time | Latitude | Longitude | Altitude | Speed | Heading |
|---|---|---|---|---|---|
| 2026-05-04 18:00 | 32.18147 | 34.82773 | 93 ft | 0 kts | 110° |
| 2026-05-04 18:03 | 32.18147 | 34.82790 | 93 ft | 0 kts | 59° |
| 2026-05-04 18:04 | 32.18172 | 34.82805 | 93 ft | 12 kts | 10° |
| 2026-05-04 18:04 | 32.18187 | 34.82859 | 93 ft | 13 kts | 112° |
| 2026-05-04 18:04 | 32.18105 | 34.83084 | 96 ft | 16 kts | 108° |
| 2026-05-04 18:05 | 32.18082 | 34.83161 | 98 ft | 18 kts | 111° |
| 2026-05-04 18:05 | 32.18042 | 34.83296 | 101 ft | 20 kts | 110° |
| 2026-05-04 18:05 | 32.18005 | 34.83423 | 104 ft | 15 kts | 110° |
| 2026-05-04 18:05 | 32.17969 | 34.83544 | 107 ft | 23 kts | 110° |
| 2026-05-04 18:06 | 32.17889 | 34.83813 | 119 ft | 10 kts | 109° |
| 2026-05-04 18:06 | 32.17881 | 34.83844 | 118 ft | 0 kts | 99° |
| 2026-05-04 18:07 | 32.17881 | 34.83845 | 119 ft | 0 kts | 99° |
| 2026-05-04 18:08 | 32.17880 | 34.83845 | 113 ft | 0 kts | 99° |
| 2026-05-04 18:09 | 32.17880 | 34.83846 | 113 ft | 0 kts | 99° |
| 2026-05-04 18:11 | 32.17880 | 34.83851 | 111 ft | 3 kts | 86° |
| 2026-05-04 18:11 | 32.17914 | 34.83854 | 123 ft | 2 kts | 291° |
| 2026-05-04 18:11 | 32.17926 | 34.83812 | 123 ft | 35 kts | 288° |
| 2026-05-04 18:12 | 32.18095 | 34.83245 | 112 ft | 97 kts | 281° |
| 2026-05-04 18:12 | 32.18463 | 34.82703 | 629 ft | 92 kts | 14° |
| 2026-05-04 18:12 | 32.19154 | 34.83222 | 899 ft | 133 kts | 27° |
| 2026-05-04 18:12 | 32.19970 | 34.83859 | 1220 ft | 153 kts | 11° |
| 2026-05-04 18:13 | 32.20960 | 34.83503 | 1170 ft | 162 kts | 304° |
| 2026-05-04 18:13 | 32.21441 | 34.82335 | 1195 ft | 164 kts | 289° |
| 2026-05-04 18:13 | 32.22250 | 34.79949 | 1997 ft | 141 kts | 287° |
| 2026-05-04 18:14 | 32.22519 | 34.78782 | 1992 ft | 158 kts | 281° |
| 2026-05-04 18:14 | 32.22781 | 34.77476 | 2045 ft | 163 kts | 282° |
| 2026-05-04 18:14 | 32.23353 | 34.76327 | 2092 ft | 170 kts | 311° |
| 2026-05-04 18:15 | 32.25347 | 34.74527 | 2124 ft | 181 kts | 315° |
| 2026-05-04 18:15 | 32.27505 | 34.72829 | 2011 ft | 190 kts | 325° |
| 2026-05-04 18:15 | 32.28686 | 34.72116 | 1988 ft | 191 kts | 326° |
| 2026-05-04 18:16 | 32.29879 | 34.71444 | 2028 ft | 188 kts | 327° |
| 2026-05-04 18:16 | 32.31061 | 34.70785 | 2004 ft | 189 kts | 326° |
| 2026-05-04 18:16 | 32.32241 | 34.70072 | 1974 ft | 192 kts | 325° |
| 2026-05-04 18:17 | 32.34590 | 34.68672 | 2051 ft | 188 kts | 327° |
| 2026-05-04 18:17 | 32.35757 | 34.67986 | 2011 ft | 192 kts | 327° |
| 2026-05-04 18:17 | 32.38252 | 34.66871 | 2140 ft | 185 kts | 348° |
| 2026-05-04 18:18 | 32.39468 | 34.67234 | 2567 ft | 188 kts | 27° |
| 2026-05-04 18:18 | 32.40315 | 34.68382 | 3064 ft | 186 kts | 57° |
| 2026-05-04 18:18 | 32.40515 | 34.69885 | 3458 ft | 186 kts | 90° |
| 2026-05-04 18:18 | 32.40400 | 34.71412 | 3889 ft | 191 kts | 104° |
| 2026-05-04 18:19 | 32.39572 | 34.74672 | 4030 ft | 215 kts | 109° |
| 2026-05-04 18:19 | 32.39103 | 34.76387 | 3992 ft | 223 kts | 110° |
| 2026-05-04 18:19 | 32.38603 | 34.78165 | 3949 ft | 226 kts | 110° |
| 2026-05-04 18:20 | 32.38140 | 34.79918 | 4113 ft | 222 kts | 108° |
| 2026-05-04 18:20 | 32.37733 | 34.81722 | 3975 ft | 231 kts | 108° |
| 2026-05-04 18:20 | 32.37388 | 34.83544 | 4044 ft | 229 kts | 91° |
| 2026-05-04 18:20 | 32.37575 | 34.85430 | 3965 ft | 232 kts | 81° |
| 2026-05-04 18:21 | 32.37849 | 34.87304 | 4024 ft | 230 kts | 78° |
| 2026-05-04 18:21 | 32.38159 | 34.89157 | 4052 ft | 231 kts | 78° |
| 2026-05-04 18:21 | 32.38210 | 34.91050 | 4026 ft | 232 kts | 105° |
| 2026-05-04 18:21 | 32.37278 | 34.92505 | 4082 ft | 223 kts | 155° |
| 2026-05-04 18:22 | 32.35803 | 34.92662 | 4001 ft | 211 kts | 206° |
| 2026-05-04 18:22 | 32.34798 | 34.91560 | 4038 ft | 196 kts | 250° |
| 2026-05-04 18:22 | 32.35062 | 34.90070 | 4086 ft | 187 kts | 298° |
| 2026-05-04 18:22 | 32.35573 | 34.88642 | 4016 ft | 190 kts | 287° |
| 2026-05-04 18:23 | 32.35975 | 34.87163 | 4033 ft | 188 kts | 284° |
| 2026-05-04 18:23 | 32.36346 | 34.85668 | 4001 ft | 188 kts | 284° |
| 2026-05-04 18:23 | 32.36650 | 34.84199 | 4046 ft | 186 kts | 280° |
| 2026-05-04 18:23 | 32.36877 | 34.82705 | 4058 ft | 185 kts | 278° |
| 2026-05-04 18:24 | 32.37128 | 34.81206 | 3990 ft | 188 kts | 285° |
| 2026-05-04 18:24 | 32.37933 | 34.80071 | 3998 ft | 190 kts | 330° |
| 2026-05-04 18:24 | 32.39248 | 34.80116 | 4012 ft | 201 kts | 24° |
| 2026-05-04 18:24 | 32.40132 | 34.81431 | 3941 ft | 218 kts | 72° |
| 2026-05-04 18:25 | 32.40050 | 34.83210 | 4020 ft | 219 kts | 106° |
| 2026-05-04 18:25 | 32.39536 | 34.84931 | 4013 ft | 222 kts | 112° |
| 2026-05-04 18:25 | 32.39017 | 34.86660 | 4013 ft | 226 kts | 111° |
| 2026-05-04 18:25 | 32.38504 | 34.88411 | 4028 ft | 228 kts | 110° |
| 2026-05-04 18:26 | 32.38014 | 34.90217 | 3974 ft | 233 kts | 110° |
| 2026-05-04 18:26 | 32.37168 | 34.91785 | 4010 ft | 228 kts | 149° |
| 2026-05-04 18:26 | 32.35724 | 34.91860 | 3989 ft | 211 kts | 214° |
| 2026-05-04 18:26 | 32.35062 | 34.90493 | 3989 ft | 192 kts | 275° |
| 2026-05-04 18:27 | 32.35462 | 34.89020 | 4052 ft | 188 kts | 289° |
| 2026-05-04 18:27 | 32.35926 | 34.87558 | 3983 ft | 191 kts | 285° |
| 2026-05-04 18:27 | 32.36251 | 34.86030 | 3991 ft | 188 kts | 279° |
| 2026-05-04 18:27 | 32.36514 | 34.84530 | 4065 ft | 184 kts | 281° |
| 2026-05-04 18:28 | 32.36838 | 34.83082 | 4005 ft | 187 kts | 287° |
| 2026-05-04 18:28 | 32.37322 | 34.81659 | 4051 ft | 185 kts | 290° |
| 2026-05-04 18:28 | 32.37817 | 34.80246 | 3991 ft | 189 kts | 289° |
| 2026-05-04 18:28 | 32.38433 | 34.78881 | 3939 ft | 190 kts | 308° |
| 2026-05-04 18:29 | 32.39554 | 34.78073 | 4028 ft | 191 kts | 331° |
| 2026-05-04 18:29 | 32.40798 | 34.77486 | 4037 ft | 196 kts | 332° |
| 2026-05-04 18:29 | 32.42084 | 34.76883 | 4004 ft | 198 kts | 332° |
| 2026-05-04 18:29 | 32.43376 | 34.76288 | 3939 ft | 203 kts | 333° |
| 2026-05-04 18:30 | 32.46001 | 34.75162 | 4051 ft | 198 kts | 331° |
| 2026-05-04 18:30 | 32.47000 | 34.74155 | 4137 ft | 190 kts | 290° |
| 2026-05-04 18:30 | 32.46985 | 34.72650 | 4028 ft | 187 kts | 240° |
| 2026-05-04 18:31 | 32.45911 | 34.71880 | 4023 ft | 195 kts | 184° |
| 2026-05-04 18:31 | 32.44610 | 34.72514 | 3931 ft | 217 kts | 157° |
| 2026-05-04 18:31 | 32.43290 | 34.73393 | 3958 ft | 219 kts | 157° |
| 2026-05-04 18:31 | 32.41965 | 34.74275 | 4020 ft | 216 kts | 157° |
| 2026-05-04 18:32 | 32.40663 | 34.75192 | 3977 ft | 218 kts | 148° |
| 2026-05-04 18:32 | 32.39671 | 34.76529 | 3977 ft | 224 kts | 127° |
| 2026-05-04 18:32 | 32.38875 | 34.78131 | 3956 ft | 227 kts | 124° |
| 2026-05-04 18:32 | 32.38108 | 34.79769 | 3974 ft | 227 kts | 117° |
| 2026-05-04 18:33 | 32.37584 | 34.81545 | 3955 ft | 229 kts | 111° |
| 2026-05-04 18:33 | 32.37062 | 34.83329 | 3958 ft | 232 kts | 112° |
| 2026-05-04 18:33 | 32.36515 | 34.85101 | 4069 ft | 226 kts | 112° |
| 2026-05-04 18:33 | 32.36026 | 34.86852 | 4005 ft | 231 kts | 108° |
| 2026-05-04 18:34 | 32.35618 | 34.88722 | 3897 ft | 235 kts | 105° |
| 2026-05-04 18:34 | 32.35217 | 34.90586 | 3951 ft | 232 kts | 109° |
| 2026-05-04 18:34 | 32.34702 | 34.92396 | 3971 ft | 233 kts | 113° |
| 2026-05-04 18:34 | 32.34136 | 34.94172 | 4019 ft | 232 kts | 113° |
| 2026-05-04 18:35 | 32.33584 | 34.95974 | 3960 ft | 235 kts | 109° |
| 2026-05-04 18:35 | 32.33221 | 34.97829 | 4087 ft | 231 kts | 100° |
| 2026-05-04 18:35 | 32.33534 | 34.99634 | 3813 ft | 233 kts | 50° |
| 2026-05-04 18:35 | 32.34979 | 35.00265 | 3210 ft | 223 kts | 342° |
| 2026-05-04 18:36 | 32.36113 | 34.99273 | 2794 ft | 201 kts | 296° |
| 2026-05-04 18:36 | 32.36397 | 34.97689 | 2174 ft | 198 kts | 264° |
| 2026-05-04 18:36 | 32.35956 | 34.96212 | 1952 ft | 185 kts | 244° |
| 2026-05-04 18:36 | 32.35340 | 34.94898 | 1970 ft | 180 kts | 243° |
| 2026-05-04 18:37 | 32.34719 | 34.93626 | 1973 ft | 179 kts | 244° |
| 2026-05-04 18:37 | 32.34075 | 34.92365 | 1987 ft | 179 kts | 243° |
| 2026-05-04 18:37 | 32.33384 | 34.91139 | 1972 ft | 180 kts | 233° |
| 2026-05-04 18:37 | 32.32314 | 34.90425 | 1971 ft | 184 kts | 197° |
| 2026-05-04 18:38 | 32.31043 | 34.90199 | 1993 ft | 180 kts | 195° |
| 2026-05-04 18:38 | 32.29815 | 34.89972 | 1972 ft | 175 kts | 197° |
| 2026-05-04 18:38 | 32.28633 | 34.89791 | 2039 ft | 165 kts | 193° |
| 2026-05-04 18:38 | 32.27504 | 34.89678 | 2010 ft | 164 kts | 194° |
| 2026-05-04 18:39 | 32.26371 | 34.89466 | 1973 ft | 167 kts | 198° |
| 2026-05-04 18:39 | 32.25248 | 34.89226 | 1978 ft | 165 kts | 197° |
| 2026-05-04 18:39 | 32.24113 | 34.88998 | 1982 ft | 160 kts | 199° |
| 2026-05-04 18:39 | 32.23101 | 34.88775 | 1954 ft | 139 kts | 199° |
| 2026-05-04 18:40 | 32.22250 | 34.88487 | 1952 ft | 122 kts | 221° |
| 2026-05-04 18:40 | 32.21615 | 34.87774 | 1521 ft | 132 kts | 235° |
| 2026-05-04 18:40 | 32.21027 | 34.86949 | 1253 ft | 130 kts | 237° |
| 2026-05-04 18:40 | 32.20449 | 34.86097 | 1133 ft | 134 kts | 231° |
| 2026-05-04 18:41 | 32.19736 | 34.85393 | 1119 ft | 136 kts | 220° |
| 2026-05-04 18:41 | 32.18863 | 34.84980 | 1178 ft | 138 kts | 208° |
| 2026-05-04 18:41 | 32.18052 | 34.84382 | 1217 ft | 136 kts | 229° |
| 2026-05-04 18:41 | 32.17635 | 34.83361 | 1028 ft | 149 kts | 274° |
| 2026-05-04 18:42 | 32.18294 | 34.82668 | 844 ft | 151 kts | 13° |
| 2026-05-04 18:42 | 32.19204 | 34.83221 | 791 ft | 142 kts | 44° |
| 2026-05-04 18:42 | 32.19361 | 34.84296 | 678 ft | 144 kts | 109° |
| 2026-05-04 18:42 | 32.18836 | 34.85300 | 740 ft | 140 kts | 158° |
| 2026-05-04 18:43 | 32.17987 | 34.85290 | 603 ft | 116 kts | 212° |
| 2026-05-04 18:43 | 32.17715 | 34.84561 | 369 ft | 102 kts | 288° |
| 2026-05-04 18:43 | 32.17916 | 34.83852 | 133 ft | 78 kts | 286° |
| 2026-05-04 18:43 | 32.18041 | 34.83423 | 100 ft | 40 kts | 287° |
| 2026-05-04 18:44 | 32.18112 | 34.83179 | 93 ft | 21 kts | 291° |
| 2026-05-04 18:44 | 32.18127 | 34.83129 | 93 ft | 15 kts | 291° |
| 2026-05-04 18:44 | 32.18102 | 34.83092 | 95 ft | 9 kts | 103° |
| 2026-05-04 18:44 | 32.18073 | 34.83192 | 97 ft | 16 kts | 109° |
| 2026-05-04 18:45 | 32.18030 | 34.83336 | 100 ft | 21 kts | 110° |
| 2026-05-04 18:45 | 32.17984 | 34.83489 | 104 ft | 9 kts | 111° |
| 2026-05-04 18:45 | 32.17954 | 34.83595 | 107 ft | 16 kts | 111° |
| 2026-05-04 18:45 | 32.17922 | 34.83704 | 112 ft | 12 kts | 109° |
| 2026-05-04 18:46 | 32.17894 | 34.83759 | 115 ft | 5 kts | 175° |
| 2026-05-04 18:46 | 32.17886 | 34.83757 | 115 ft | 0 kts | 210° |